Airfield :
LOGIN :

Register | Disclaimer

   EN    FR    IT 

 










Legend :    VFR   Marginal VFR   IFR   Intensive IFR   Very Intensive IFR
Visi :
Ceiling :
>= 8 km
>= 3000ft
5 to 8 km
1000 to 3000 ft
1500m to 5 km
500 to 1000 ft
800 to 1500m
200 to 500 ft
< 800m
< 200 ft
Symbols :   Thunderstorms  Fog  Heavy snow  Heavy precipitations  Wind > 20 kt
SIGMETs :     Misc.  Thunderstorms  Icing  Turbulence  Mountain Waves  Volcanic Ashes






- Airport Elevation : 465 ft
- IATA code : LEJ


EDDP - Leipzig Halle

CURRENT METAR :
  • 170950Z 04009KT 5000 -RADZ BR BKN004 OVC037 04/04 Q1011 TEMPO 4000 -RADZ

EXPIRED METARs :
  • 170920Z 03010KT 6000 -RADZ SCT004 OVC044 04/03 Q1011 TEMPO 4000 -RADZ BKN004
  • 170850Z 04010KT 7000 -RA FEW020 BKN047 04/03 Q1012 NOSIG
  • 170820Z 04011KT 8000 -RA FEW020 BKN049 04/03 Q1012 NOSIG
  • 170750Z 03011KT 8000 -RA SCT020 OVC049 04/03 Q1012 NOSIG
  • 170720Z 04009KT 9000 -RA SCT020 BKN046 03/02 Q1012 NOSIG

TAF TAF EDDP
Valid from the 17 at 06:00 until the 18 at 06:00 UTC


170500Z 1706/1806 05005KT 8000 NSC
BECMG 1706/1709 4000 -RADZ BR BKN006
TEMPO 1709/1712 2000 RA BKN003
TEMPO 1712/1717 2500 -RADZ BKN003
TEMPO 1720/1806 1200 BCFG BKN002



MET'MAP, your aeronautical weather chart ! - Copyright ORBIFLY December 2007 - Disclaimer

ORBIFLY MET'MAP TEAM :

Programming & Development : Alexandra Zaïnal
Concept & Development : Baudouin d'Aumeries
Co-Development & Prog : Marc-Olivier Méhu
Technical & hardware support : Manuel Goepfert

Contact : metmap@orbifly.com




SOURCES & CREDITS :

   NOAA